createdAt,value
2023-03-17T00:00:47.446Z,3.78
2023-03-17T00:03:23.311Z,4.85
2023-03-17T00:05:52.092Z,5.05
2023-03-17T00:08:27.650Z,4.30
2023-03-17T00:10:56.275Z,4.05
2023-03-17T00:13:25.152Z,6.82
2023-03-17T00:16:00.358Z,5.95
2023-03-17T00:18:28.842Z,5.05
2023-03-17T00:20:56.604Z,4.70
2023-03-17T00:23:26.270Z,4.65
2023-03-17T00:25:55.316Z,7.45
2023-03-17T00:28:28.696Z,4.72
2023-03-17T00:31:00.089Z,4.93
2023-03-17T00:33:34.244Z,2.83
2023-03-17T00:36:02.523Z,3.58
2023-03-17T00:38:30.849Z,4.07
2023-03-17T00:40:58.694Z,3.87
2023-03-17T00:43:26.379Z,5.05
2023-03-17T00:45:54.080Z,4.10
2023-03-17T00:48:23.243Z,4.87
2023-03-17T00:50:52.015Z,3.72
2023-03-17T00:53:22.828Z,3.70
2023-03-17T00:55:51.133Z,3.45
2023-03-17T00:58:29.902Z,3.15
2023-03-17T01:00:58.578Z,5.30
2023-03-17T01:03:27.135Z,4.43
2023-03-17T01:05:58.062Z,2.62
2023-03-17T01:08:26.918Z,3.83
2023-03-17T01:10:54.699Z,3.70
2023-03-17T01:13:22.569Z,2.83
2023-03-17T01:15:52.160Z,3.03
2023-03-17T01:18:23.786Z,3.10
2023-03-17T01:20:52.272Z,2.40
2023-03-17T01:23:20.143Z,3.25
2023-03-17T01:25:47.876Z,2.60
2023-03-17T01:28:19.041Z,2.85
2023-03-17T01:30:47.205Z,3.45
2023-03-17T01:33:15.682Z,2.45
2023-03-17T01:35:46.882Z,4.85
2023-03-17T01:38:16.429Z,4.55
2023-03-17T01:40:48.088Z,2.45
2023-03-17T01:43:29.710Z,3.10
2023-03-17T01:46:22.087Z,4.45
2023-03-17T01:48:59.931Z,2.37
2023-03-17T01:51:33.000Z,3.60
2023-03-17T01:54:04.657Z,3.22
2023-03-17T01:56:32.658Z,2.50
2023-03-17T01:59:04.066Z,2.47
2023-03-17T02:01:38.926Z,3.00
2023-03-17T02:04:07.592Z,2.30
2023-03-17T02:06:42.143Z,2.67
2023-03-17T02:09:15.353Z,3.97
2023-03-17T02:11:43.386Z,2.80
2023-03-17T02:14:11.144Z,4.40
2023-03-17T02:16:39.302Z,4.03
2023-03-17T02:19:07.109Z,4.03
2023-03-17T02:21:47.439Z,4.65
2023-03-17T02:24:33.765Z,5.05
2023-03-17T02:27:15.956Z,2.62
2023-03-17T02:29:47.292Z,2.87
2023-03-17T02:32:18.760Z,3.42
2023-03-17T02:34:50.659Z,4.10
2023-03-17T02:37:20.334Z,3.47
2023-03-17T02:39:48.486Z,4.78
2023-03-17T02:42:16.248Z,4.00
2023-03-17T02:44:43.907Z,3.35
2023-03-17T02:47:12.003Z,5.10
2023-03-17T02:49:41.874Z,4.87
2023-03-17T02:52:10.448Z,5.03
2023-03-17T02:54:38.205Z,3.95
2023-03-17T02:57:06.221Z,2.97
2023-03-17T02:59:34.044Z,3.75
2023-03-17T03:02:02.363Z,3.62
2023-03-17T03:04:30.749Z,3.25
2023-03-17T03:06:58.886Z,4.30
2023-03-17T03:09:27.317Z,5.18
2023-03-17T03:11:56.359Z,4.93
2023-03-17T03:14:25.058Z,5.22
2023-03-17T03:16:53.450Z,3.62
2023-03-17T03:19:22.089Z,3.47
2023-03-17T03:21:50.501Z,3.30
2023-03-17T03:24:18.226Z,3.42
2023-03-17T03:26:45.880Z,3.28
2023-03-17T03:29:13.808Z,6.47
2023-03-17T03:31:41.709Z,3.42
2023-03-17T03:34:09.581Z,3.67
2023-03-17T03:36:38.136Z,4.85
2023-03-17T03:39:05.929Z,6.97
2023-03-17T03:41:33.661Z,4.78
2023-03-17T03:44:01.705Z,4.53
2023-03-17T03:46:29.892Z,5.15
2023-03-17T03:48:57.635Z,4.60
2023-03-17T03:51:25.391Z,4.60
2023-03-17T03:53:53.270Z,5.82
2023-03-17T03:56:21.025Z,4.75
2023-03-17T03:58:48.736Z,4.60
2023-03-17T04:01:16.554Z,4.40
2023-03-17T04:03:44.276Z,3.50
2023-03-17T04:06:12.422Z,5.37
2023-03-17T04:08:40.086Z,2.95
2023-03-17T04:11:07.775Z,3.42
2023-03-17T04:13:35.627Z,4.95
2023-03-17T04:16:04.348Z,3.15
2023-03-17T04:18:32.810Z,3.47
2023-03-17T04:21:00.808Z,2.97
2023-03-17T04:27:33.679Z,5.03
2023-03-17T04:30:02.878Z,2.37
2023-03-17T04:32:30.628Z,9.93
2023-03-17T04:34:58.997Z,3.83
2023-03-17T04:37:26.994Z,3.25
2023-03-17T04:39:56.241Z,3.05
2023-03-17T04:42:23.901Z,3.95
2023-03-17T04:44:51.659Z,3.70
2023-03-17T04:47:19.338Z,3.83
2023-03-17T04:49:47.259Z,3.75
2023-03-17T04:52:15.036Z,3.85
2023-03-17T04:54:43.259Z,4.35
2023-03-17T04:57:11.398Z,4.62
2023-03-17T04:59:39.053Z,4.65
2023-03-17T05:02:06.801Z,4.05
2023-03-17T05:04:34.656Z,4.00
2023-03-17T05:07:02.404Z,3.22
2023-03-17T05:09:30.027Z,4.05
2023-03-17T05:11:57.726Z,4.45
2023-03-17T05:14:25.495Z,4.40
2023-03-17T05:16:53.512Z,6.03
2023-03-17T05:19:21.793Z,3.95
2023-03-17T05:21:49.499Z,5.22
2023-03-17T05:24:17.242Z,4.30
2023-03-17T05:26:45.669Z,4.03
2023-03-17T05:29:13.385Z,5.03
2023-03-17T05:31:41.149Z,5.45
2023-03-17T05:34:08.846Z,7.65
2023-03-17T05:36:37.869Z,6.07
2023-03-17T05:39:06.201Z,5.93
2023-03-17T05:41:34.927Z,4.65
2023-03-17T05:44:02.637Z,4.65
2023-03-17T05:46:30.334Z,7.28
2023-03-17T05:48:58.356Z,5.05
2023-03-17T05:51:26.165Z,5.45
2023-03-17T05:53:53.912Z,5.82
2023-03-17T05:56:21.975Z,4.20
2023-03-17T05:58:50.050Z,6.53
2023-03-17T06:01:17.970Z,5.12
2023-03-17T06:03:45.825Z,4.80
2023-03-17T06:06:13.612Z,5.18
2023-03-17T06:08:41.670Z,5.40
2023-03-17T06:11:09.409Z,5.65
2023-03-17T06:13:37.678Z,4.65
2023-03-17T06:16:05.672Z,3.92
2023-03-17T06:18:33.360Z,5.93
2023-03-17T06:21:01.175Z,5.45
2023-03-17T06:23:28.936Z,6.03
2023-03-17T06:25:56.859Z,4.00
2023-03-17T06:28:25.169Z,6.28
2023-03-17T06:30:52.828Z,8.98
2023-03-17T06:33:20.600Z,4.65
2023-03-17T06:35:48.682Z,3.80
2023-03-17T06:38:16.442Z,6.47
2023-03-17T06:40:44.418Z,5.07
2023-03-17T06:43:12.064Z,6.20
2023-03-17T06:45:39.851Z,5.03
2023-03-17T06:48:08.035Z,4.12
2023-03-17T06:50:35.729Z,4.12
2023-03-17T06:53:03.357Z,4.53
2023-03-17T06:55:31.250Z,7.22
2023-03-17T06:58:00.046Z,6.40
2023-03-17T07:00:28.771Z,8.48
2023-03-17T07:02:56.481Z,8.02
2023-03-17T07:05:24.319Z,7.18
2023-03-17T07:07:52.084Z,7.32
2023-03-17T07:10:20.215Z,8.35
2023-03-17T07:12:48.141Z,7.32
2023-03-17T07:15:16.198Z,8.10
2023-03-17T07:17:44.274Z,6.07
2023-03-17T07:20:12.838Z,7.97
2023-03-17T07:22:41.193Z,6.57
2023-03-17T07:25:09.247Z,4.18
2023-03-17T07:27:37.013Z,7.78
2023-03-17T07:30:06.178Z,8.35
2023-03-17T07:32:34.116Z,4.95
2023-03-17T07:35:01.914Z,5.35
2023-03-17T07:37:29.634Z,4.10
2023-03-17T07:39:57.300Z,6.37
2023-03-17T07:42:25.106Z,4.95
2023-03-17T07:44:52.816Z,6.95
2023-03-17T07:47:20.617Z,4.97
2023-03-17T07:49:48.598Z,6.05
2023-03-17T07:52:16.523Z,6.22
2023-03-17T07:54:44.601Z,5.32
2023-03-17T07:57:13.254Z,6.15
2023-03-17T07:59:41.352Z,7.40
2023-03-17T08:02:12.342Z,7.10
2023-03-17T08:04:40.387Z,6.00
2023-03-17T08:07:08.251Z,6.47
2023-03-17T08:09:35.961Z,6.60
2023-03-17T08:12:04.731Z,5.82
2023-03-17T08:14:32.515Z,7.93
2023-03-17T08:17:00.551Z,7.90
2023-03-17T08:19:28.385Z,6.50
2023-03-17T08:21:56.094Z,5.95
2023-03-17T08:24:23.717Z,6.18
2023-03-17T08:26:51.497Z,9.05
2023-03-17T08:29:20.046Z,5.15
2023-03-17T08:31:48.140Z,4.95
2023-03-17T08:34:17.288Z,6.05
2023-03-17T08:36:44.908Z,6.03
2023-03-17T08:39:12.698Z,7.72
2023-03-17T08:41:40.445Z,7.12
2023-03-17T08:44:10.053Z,6.35
2023-03-17T08:46:38.571Z,5.90
2023-03-17T08:49:06.293Z,6.05
2023-03-17T08:51:36.991Z,6.25
2023-03-17T08:54:06.213Z,5.12
2023-03-17T08:56:34.561Z,5.78
2023-03-17T08:59:02.250Z,5.62
2023-03-17T09:01:29.979Z,10.23
2023-03-17T09:03:57.670Z,7.05
2023-03-17T09:06:26.575Z,6.20
2023-03-17T09:08:56.498Z,9.23
2023-03-17T09:11:27.681Z,5.53
2023-03-17T09:13:56.600Z,6.22
2023-03-17T09:16:25.355Z,5.85
2023-03-17T09:18:53.938Z,5.95
2023-03-17T09:21:22.370Z,6.57
2023-03-17T09:23:50.081Z,5.40
2023-03-17T09:26:17.775Z,6.20
2023-03-17T09:28:45.920Z,8.27
2023-03-17T09:31:14.087Z,6.12
2023-03-17T09:33:42.787Z,5.95
2023-03-17T09:36:11.629Z,5.72
2023-03-17T09:38:39.655Z,6.78
2023-03-17T09:41:22.437Z,6.15
2023-03-17T09:44:07.756Z,5.70
2023-03-17T09:46:49.592Z,5.35
2023-03-17T09:49:30.596Z,5.90
2023-03-17T09:51:58.328Z,4.85
2023-03-17T09:54:34.493Z,5.20
2023-03-17T09:57:15.562Z,6.20
2023-03-17T09:59:51.702Z,6.47
2023-03-17T10:02:31.282Z,6.30
2023-03-17T10:04:59.350Z,5.57
2023-03-17T10:07:40.482Z,6.12
2023-03-17T10:10:26.792Z,5.80
2023-03-17T10:13:03.208Z,6.10
2023-03-17T10:15:52.767Z,6.25
2023-03-17T10:18:27.449Z,6.15
2023-03-17T10:21:05.584Z,5.87
2023-03-17T10:23:35.855Z,5.35
2023-03-17T10:26:32.349Z,6.28
2023-03-17T10:29:04.868Z,5.75
2023-03-17T10:31:36.599Z,6.95
2023-03-17T10:34:19.406Z,5.62
2023-03-17T10:37:02.106Z,6.10
2023-03-17T10:39:32.766Z,6.53
2023-03-17T10:42:10.093Z,6.20
2023-03-17T10:44:52.143Z,10.63
2023-03-17T10:47:39.056Z,5.80
2023-03-17T10:50:22.741Z,4.80
2023-03-17T10:53:07.096Z,5.70
2023-03-17T10:55:45.785Z,6.37
2023-03-17T10:58:56.065Z,6.25
2023-03-17T11:01:23.903Z,6.25
2023-03-17T11:03:52.036Z,7.00
2023-03-17T11:06:21.963Z,5.62
2023-03-17T11:08:57.049Z,6.90
2023-03-17T11:11:35.747Z,7.03
2023-03-17T11:14:11.628Z,6.47
2023-03-17T11:16:47.893Z,7.05
2023-03-17T11:19:19.980Z,6.55
2023-03-17T11:22:12.663Z,6.32
2023-03-17T11:24:59.567Z,6.37
2023-03-17T11:27:41.400Z,7.50
2023-03-17T11:30:14.270Z,7.70
2023-03-17T11:32:57.711Z,8.63
2023-03-17T11:35:44.591Z,8.43
2023-03-17T11:38:30.361Z,7.95
2023-03-17T11:41:42.848Z,8.48
2023-03-17T11:44:33.007Z,7.30
2023-03-17T11:47:06.310Z,6.60
2023-03-17T11:49:40.771Z,8.32
2023-03-17T11:52:28.030Z,6.93
2023-03-17T11:55:00.070Z,8.82
2023-03-17T11:57:41.441Z,8.55
2023-03-17T12:00:22.033Z,7.12
2023-03-17T12:03:13.905Z,9.07
2023-03-17T12:05:43.879Z,7.37
2023-03-17T12:08:24.815Z,6.85
2023-03-17T12:10:56.692Z,7.37
2023-03-17T12:13:31.774Z,9.43
2023-03-17T12:16:08.380Z,7.47
2023-03-17T12:18:47.535Z,7.05
2023-03-17T12:21:47.732Z,7.22
2023-03-17T12:24:21.330Z,7.82
2023-03-17T12:27:19.152Z,7.85
2023-03-17T12:30:06.465Z,8.00
2023-03-17T12:32:43.243Z,6.97
2023-03-17T12:35:35.259Z,7.62
2023-03-17T12:38:13.386Z,9.13
2023-03-17T12:41:10.932Z,8.27
2023-03-17T12:44:02.522Z,6.45
2023-03-17T12:46:36.420Z,7.75
2023-03-17T12:49:32.257Z,8.35
2023-03-17T12:52:21.777Z,7.57
2023-03-17T12:54:53.072Z,8.40
2023-03-17T12:57:25.275Z,9.65
2023-03-17T13:00:02.059Z,7.43
2023-03-17T13:02:29.688Z,8.13
2023-03-17T13:05:01.910Z,8.98
2023-03-17T13:07:34.532Z,8.32
2023-03-17T13:10:02.170Z,8.10
2023-03-17T13:12:45.472Z,7.72
2023-03-17T13:15:23.081Z,8.48
2023-03-17T13:17:51.909Z,8.15
2023-03-17T13:20:38.924Z,8.10
2023-03-17T13:23:12.591Z,8.63
2023-03-17T13:25:40.280Z,10.50
2023-03-17T13:28:13.870Z,10.45
2023-03-17T13:30:41.565Z,8.43
2023-03-17T13:33:17.488Z,9.18
2023-03-17T13:36:05.064Z,11.02
2023-03-17T13:39:18.647Z,9.27
2023-03-17T13:41:52.879Z,9.30
2023-03-17T13:45:07.551Z,9.95
2023-03-17T13:47:43.574Z,11.27
2023-03-17T13:50:18.193Z,9.50
2023-03-17T13:53:03.849Z,9.45
2023-03-17T13:55:36.743Z,9.48
2023-03-17T13:58:11.911Z,10.00
2023-03-17T14:00:42.619Z,11.35
2023-03-17T14:03:43.485Z,10.63
2023-03-17T14:06:14.072Z,12.02
2023-03-17T14:08:51.780Z,11.23
2023-03-17T14:11:35.034Z,12.98
2023-03-17T14:14:32.536Z,15.68
2023-03-17T14:17:08.081Z,14.77
2023-03-17T14:19:35.888Z,11.73
2023-03-17T14:22:05.734Z,10.95
2023-03-17T14:24:35.340Z,10.23
2023-03-17T14:27:11.024Z,15.02
2023-03-17T14:29:39.299Z,10.52
2023-03-17T14:32:18.590Z,8.68
2023-03-17T14:34:58.935Z,8.52
2023-03-17T14:37:30.029Z,9.80
2023-03-17T14:39:59.344Z,9.60
2023-03-17T14:42:30.140Z,9.43
2023-03-17T14:45:29.732Z,9.07
2023-03-17T14:47:58.084Z,11.88
2023-03-17T14:50:29.431Z,10.20
2023-03-17T14:52:59.808Z,7.75
2023-03-17T14:55:45.762Z,8.07
2023-03-17T14:58:27.640Z,9.65
2023-03-17T15:01:03.444Z,9.07
2023-03-17T15:03:34.170Z,8.88
2023-03-17T15:06:24.808Z,9.25
2023-03-17T15:08:53.821Z,11.45
2023-03-17T15:11:28.600Z,9.70
2023-03-17T15:14:15.218Z,12.15
2023-03-17T15:16:50.565Z,9.15
2023-03-17T15:19:29.117Z,11.30
2023-03-17T15:22:01.415Z,9.25
2023-03-17T15:24:42.993Z,9.70
2023-03-17T15:27:19.075Z,13.20
2023-03-17T15:29:47.873Z,10.10
2023-03-17T15:32:24.523Z,9.45
2023-03-17T15:35:00.435Z,9.65
2023-03-17T15:37:33.697Z,8.80
2023-03-17T15:40:03.078Z,11.12
2023-03-17T15:42:33.884Z,9.40
2023-03-17T15:45:02.801Z,8.50
2023-03-17T15:47:33.805Z,11.55
2023-03-17T15:50:13.394Z,9.40
2023-03-17T15:52:41.323Z,8.95
2023-03-17T15:55:18.070Z,9.80
2023-03-17T15:57:53.857Z,8.60
2023-03-17T16:00:24.785Z,10.77
2023-03-17T16:02:58.385Z,13.27
2023-03-17T16:05:29.320Z,14.10
2023-03-17T16:07:57.339Z,12.63
2023-03-17T16:10:31.875Z,12.82
2023-03-17T16:13:00.486Z,12.32
2023-03-17T16:15:32.346Z,14.18
2023-03-17T16:18:03.318Z,12.43
2023-03-17T16:20:41.721Z,12.50
2023-03-17T16:23:20.742Z,13.18
2023-03-17T16:25:48.434Z,11.75
2023-03-17T16:28:24.978Z,14.57
2023-03-17T16:30:55.392Z,14.05
2023-03-17T16:33:27.696Z,12.90
2023-03-17T16:35:57.023Z,10.85
2023-03-17T16:38:27.168Z,11.63
2023-03-17T16:40:59.304Z,11.07
2023-03-17T16:43:30.833Z,11.93
2023-03-17T16:46:00.673Z,11.18
2023-03-17T16:48:28.501Z,12.88
2023-03-17T16:50:58.830Z,11.32
2023-03-17T16:53:27.310Z,11.70
2023-03-17T16:55:56.497Z,13.62
2023-03-17T16:58:38.033Z,13.80
2023-03-17T17:01:12.881Z,12.37
2023-03-17T17:03:42.271Z,11.38
2023-03-17T17:06:11.927Z,10.55
2023-03-17T17:08:39.626Z,12.80
2023-03-17T17:11:07.656Z,11.50
2023-03-17T17:13:35.350Z,12.57
2023-03-17T17:16:03.235Z,14.25
2023-03-17T17:18:31.063Z,14.20
2023-03-17T17:20:58.803Z,12.93
2023-03-17T17:23:28.200Z,15.48
2023-03-17T17:25:56.588Z,14.10
2023-03-17T17:28:25.595Z,16.08
2023-03-17T17:30:54.176Z,13.82
2023-03-17T17:33:22.847Z,13.73
2023-03-17T17:35:51.235Z,13.43
2023-03-17T17:38:28.547Z,15.60
2023-03-17T17:40:57.993Z,13.45
2023-03-17T17:43:26.602Z,15.10
2023-03-17T17:45:54.816Z,11.95
2023-03-17T17:48:25.011Z,11.80
2023-03-17T17:50:54.630Z,19.95
2023-03-17T17:53:22.609Z,11.95
2023-03-17T17:55:52.659Z,11.95
2023-03-17T17:58:23.410Z,21.65
2023-03-17T18:00:52.448Z,27.25
2023-03-17T18:03:25.484Z,11.93
2023-03-17T18:05:55.247Z,13.38
2023-03-17T18:08:24.181Z,10.23
2023-03-17T18:10:52.519Z,11.30
2023-03-17T18:13:20.587Z,11.27
2023-03-17T18:15:48.293Z,11.80
2023-03-17T18:18:15.962Z,11.80
2023-03-17T18:20:43.598Z,11.88
2023-03-17T18:23:11.310Z,11.20
2023-03-17T18:25:39.046Z,15.38
2023-03-17T18:28:07.466Z,9.80
2023-03-17T18:30:35.954Z,11.68
2023-03-17T18:33:14.978Z,10.23
2023-03-17T18:35:43.277Z,10.35
2023-03-17T18:38:11.101Z,11.50
2023-03-17T18:40:38.950Z,10.30
2023-03-17T18:43:07.077Z,9.98
2023-03-17T18:45:34.936Z,12.23
2023-03-17T18:48:02.601Z,12.82
2023-03-17T18:50:30.623Z,12.90
2023-03-17T18:52:58.497Z,11.98
2023-03-17T18:55:26.380Z,12.50
2023-03-17T18:57:56.002Z,12.93
2023-03-17T19:00:26.294Z,17.77
2023-03-17T19:02:54.535Z,14.43
2023-03-17T19:05:22.567Z,14.30
2023-03-17T19:07:50.354Z,14.27
2023-03-17T19:10:19.039Z,16.85
2023-03-17T19:12:48.329Z,17.67
2023-03-17T19:15:15.985Z,17.50
2023-03-17T19:17:44.137Z,19.10
2023-03-17T19:20:13.400Z,18.98
2023-03-17T19:22:41.627Z,18.77
2023-03-17T19:25:10.413Z,17.95
2023-03-17T19:27:38.313Z,19.15
2023-03-17T19:30:07.058Z,16.80
2023-03-17T19:32:34.734Z,16.70
2023-03-17T19:35:02.995Z,16.33
2023-03-17T19:37:32.495Z,16.67
2023-03-17T19:40:00.320Z,16.42
2023-03-17T19:42:28.094Z,13.48
2023-03-17T19:44:55.801Z,14.98
2023-03-17T19:47:23.511Z,12.27
2023-03-17T19:49:51.223Z,11.27
2023-03-17T19:52:19.827Z,12.18
2023-03-17T19:54:47.575Z,12.27
2023-03-17T19:57:16.803Z,12.98
2023-03-17T19:59:44.583Z,11.57
2023-03-17T20:02:15.402Z,12.00
2023-03-17T20:04:44.019Z,10.82
2023-03-17T20:07:12.550Z,17.15
2023-03-17T20:09:40.487Z,11.98
2023-03-17T20:12:08.254Z,13.38
2023-03-17T20:14:35.998Z,11.68
2023-03-17T20:17:03.938Z,11.57
2023-03-17T20:19:32.106Z,16.45
2023-03-17T20:21:59.804Z,11.00
2023-03-17T20:24:29.640Z,12.05
2023-03-17T20:26:59.146Z,10.93
2023-03-17T20:29:27.181Z,11.12
2023-03-17T20:31:55.448Z,11.70
2023-03-17T20:34:24.146Z,13.00
2023-03-17T20:36:52.497Z,11.82
2023-03-17T20:39:23.026Z,13.70
2023-03-17T20:41:52.615Z,10.77
2023-03-17T20:44:21.433Z,20.55
2023-03-17T20:46:49.228Z,18.10
2023-03-17T20:49:18.409Z,16.62
2023-03-17T20:51:47.410Z,17.30
2023-03-17T20:54:15.316Z,16.23
2023-03-17T20:56:43.078Z,16.95
2023-03-17T20:59:12.945Z,17.35
2023-03-17T21:01:41.368Z,20.80
2023-03-17T21:04:10.916Z,17.55
2023-03-17T21:06:39.627Z,15.98
2023-03-17T21:09:07.373Z,20.30
2023-03-17T21:11:35.097Z,17.65
2023-03-17T21:14:04.416Z,20.10
2023-03-17T21:16:32.412Z,17.67
2023-03-17T21:19:00.186Z,18.00
2023-03-17T21:21:28.960Z,14.98
2023-03-17T21:23:56.933Z,18.77
2023-03-17T21:26:25.863Z,20.02
2023-03-17T21:28:53.720Z,19.37
2023-03-17T21:31:21.361Z,21.15
2023-03-17T21:33:52.244Z,19.92
2023-03-17T21:36:21.889Z,16.85
2023-03-17T21:38:49.762Z,16.17
2023-03-17T21:41:35.674Z,17.62
2023-03-17T21:44:04.496Z,18.70
2023-03-17T21:46:32.922Z,17.77
2023-03-17T21:49:01.509Z,19.27
2023-03-17T21:51:29.622Z,17.55
2023-03-17T21:53:58.747Z,18.35
2023-03-17T21:56:26.563Z,15.30
2023-03-17T21:58:54.706Z,18.02
2023-03-17T22:01:23.688Z,15.98
2023-03-17T22:03:53.242Z,14.25
2023-03-17T22:06:21.846Z,15.88
2023-03-17T22:08:49.945Z,15.90
2023-03-17T22:11:19.478Z,15.65
2023-03-17T22:13:48.342Z,16.10
2023-03-17T22:16:17.542Z,17.92
2023-03-17T22:18:45.527Z,15.35
2023-03-17T22:21:13.367Z,16.70
2023-03-17T22:23:43.232Z,13.25
2023-03-17T22:26:16.083Z,16.67
2023-03-17T22:28:45.743Z,13.65
2023-03-17T22:31:31.960Z,13.68
2023-03-17T22:34:00.361Z,12.23
2023-03-17T22:36:29.466Z,13.15
2023-03-17T22:38:57.978Z,14.80
2023-03-17T22:41:28.310Z,16.23
2023-03-17T22:43:56.007Z,17.27
2023-03-17T22:46:24.349Z,13.73
2023-03-17T22:48:52.969Z,15.52
2023-03-17T22:51:23.484Z,12.55
2023-03-17T22:53:52.322Z,12.20
2023-03-17T22:56:20.688Z,16.40
2023-03-17T22:58:49.054Z,12.35
2023-03-17T23:01:18.391Z,11.15
2023-03-17T23:03:46.696Z,9.25
2023-03-17T23:06:15.642Z,10.98
2023-03-17T23:08:44.715Z,13.77
2023-03-17T23:11:22.325Z,11.88
2023-03-17T23:13:51.656Z,9.77
2023-03-17T23:16:21.407Z,9.80
2023-03-17T23:18:49.549Z,12.15
2023-03-17T23:21:29.640Z,12.63
2023-03-17T23:23:57.821Z,8.73
2023-03-17T23:26:25.757Z,10.95
2023-03-17T23:28:53.782Z,11.52
2023-03-17T23:31:23.390Z,12.00
2023-03-17T23:33:51.608Z,11.52
2023-03-17T23:36:20.080Z,10.65
2023-03-17T23:38:48.600Z,12.88
2023-03-17T23:41:16.618Z,10.25
2023-03-17T23:43:45.053Z,9.18
2023-03-17T23:46:14.118Z,10.70
2023-03-17T23:48:42.739Z,10.90
2023-03-17T23:51:12.233Z,11.52
2023-03-17T23:53:43.536Z,13.70
2023-03-17T23:56:14.023Z,9.13
2023-03-17T23:58:44.376Z,9.35
